createdAt,value
2018-06-27T00:00:16.136Z,16.40
2018-06-27T00:02:44.987Z,16.40
2018-06-27T00:07:42.136Z,16.40
2018-06-27T00:10:10.932Z,16.50
2018-06-27T00:15:08.236Z,16.30
2018-06-27T00:17:36.955Z,16.20
2018-06-27T00:20:06.009Z,16.20
2018-06-27T00:27:31.546Z,16.10
2018-06-27T00:30:00.357Z,16.10
2018-06-27T00:32:29.035Z,16.10
2018-06-27T00:34:57.821Z,16.00
2018-06-27T00:37:26.536Z,16.00
2018-06-27T00:39:55.306Z,16.00
2018-06-27T00:42:24.043Z,16.00
2018-06-27T00:44:52.745Z,16.00
2018-06-27T00:47:21.554Z,16.00
2018-06-27T00:49:50.244Z,16.10
2018-06-27T00:54:47.519Z,15.90
2018-06-27T00:57:16.244Z,16.00
2018-06-27T00:59:45.050Z,15.90
2018-06-27T01:02:13.818Z,15.90
2018-06-27T01:04:42.555Z,15.90
2018-06-27T01:07:11.297Z,15.80
2018-06-27T01:09:40.043Z,15.70
2018-06-27T01:12:08.745Z,15.80
2018-06-27T01:14:37.569Z,15.80
2018-06-27T01:17:06.958Z,15.70
2018-06-27T01:22:04.231Z,15.70
2018-06-27T01:24:32.980Z,15.60
2018-06-27T01:29:30.267Z,15.50
2018-06-27T01:31:59.037Z,15.50
2018-06-27T01:34:27.763Z,15.50
2018-06-27T01:39:25.034Z,15.50
2018-06-27T01:41:53.724Z,15.50
2018-06-27T01:46:50.865Z,15.60
2018-06-27T01:49:19.640Z,15.50
2018-06-27T01:51:48.328Z,15.50
2018-06-27T01:54:17.105Z,15.50
2018-06-27T01:59:14.207Z,15.50
2018-06-27T02:01:42.947Z,15.50
2018-06-27T02:04:11.729Z,15.40
2018-06-27T02:06:40.402Z,15.40
2018-06-27T02:09:10.587Z,15.40
2018-06-27T02:11:39.363Z,15.40
2018-06-27T02:14:08.221Z,15.40
2018-06-27T02:19:05.384Z,15.30
2018-06-27T02:21:34.072Z,15.30
2018-06-27T02:24:02.799Z,15.10
2018-06-27T02:29:00.187Z,15.10
2018-06-27T02:31:28.932Z,15.20
2018-06-27T02:33:57.669Z,15.10
2018-06-27T02:36:26.364Z,15.10
2018-06-27T02:38:55.155Z,15.20
2018-06-27T02:41:23.915Z,15.30
2018-06-27T02:43:52.724Z,15.20
2018-06-27T02:48:50.182Z,15.10
2018-06-27T02:51:19.055Z,15.00
2018-06-27T02:53:47.792Z,15.00
2018-06-27T02:58:44.880Z,14.90
2018-06-27T03:01:13.770Z,14.80
2018-06-27T03:06:10.892Z,14.90
2018-06-27T03:08:39.574Z,14.90
2018-06-27T03:11:08.310Z,14.90
2018-06-27T03:13:37.058Z,14.90
2018-06-27T03:16:05.807Z,14.90
2018-06-27T03:18:34.589Z,14.90
2018-06-27T03:21:03.339Z,14.80
2018-06-27T03:23:32.073Z,14.70
2018-06-27T03:28:29.107Z,14.60
2018-06-27T03:30:57.916Z,14.60
2018-06-27T03:38:23.367Z,14.70
2018-06-27T03:40:52.229Z,14.70
2018-06-27T03:45:49.424Z,14.70
2018-06-27T03:48:18.145Z,14.70
2018-06-27T03:50:46.911Z,14.80
2018-06-27T03:53:15.689Z,14.80
2018-06-27T03:55:44.397Z,14.80
2018-06-27T03:58:13.165Z,14.80
2018-06-27T04:00:41.910Z,14.80
2018-06-27T04:03:10.610Z,14.80
2018-06-27T04:08:08.019Z,14.80
2018-06-27T04:10:36.717Z,14.90
2018-06-27T04:13:05.583Z,14.90
2018-06-27T04:15:36.811Z,14.90
2018-06-27T04:18:05.962Z,14.80
2018-06-27T04:20:34.843Z,14.80
2018-06-27T04:23:03.699Z,14.80
2018-06-27T04:25:32.618Z,14.80
2018-06-27T04:28:01.329Z,14.80
2018-06-27T04:30:30.064Z,14.80
2018-06-27T04:35:27.092Z,14.90
2018-06-27T04:37:55.730Z,15.00
2018-06-27T04:40:24.426Z,15.00
2018-06-27T04:42:53.042Z,15.00
2018-06-27T04:45:21.863Z,15.00
2018-06-27T04:50:18.835Z,15.20
2018-06-27T04:52:47.530Z,15.30
2018-06-27T04:55:16.375Z,15.40
2018-06-27T04:57:45.029Z,15.50
2018-06-27T05:00:13.833Z,15.60
2018-06-27T05:02:42.503Z,15.70
2018-06-27T05:05:11.199Z,15.80
2018-06-27T05:07:39.867Z,15.80
2018-06-27T05:10:08.576Z,15.90
2018-06-27T05:12:37.219Z,15.90
2018-06-27T05:17:34.284Z,16.10
2018-06-27T05:20:02.995Z,16.10
2018-06-27T05:22:31.836Z,16.10
2018-06-27T05:25:00.603Z,16.20
2018-06-27T05:27:29.324Z,16.20
2018-06-27T05:29:57.933Z,16.30
2018-06-27T05:32:26.769Z,16.30
2018-06-27T05:34:55.442Z,16.30
2018-06-27T05:37:26.822Z,16.60
2018-06-27T05:39:55.487Z,16.70
2018-06-27T05:42:24.140Z,16.80
2018-06-27T05:47:21.217Z,16.80
2018-06-27T05:52:18.227Z,17.00
2018-06-27T05:59:47.412Z,17.20
2018-06-27T06:04:44.368Z,17.40
2018-06-27T06:09:41.271Z,17.40
2018-06-27T06:12:09.894Z,17.30
2018-06-27T06:14:38.587Z,17.40
2018-06-27T06:27:06.388Z,18.00
2018-06-27T06:29:35.305Z,18.00
2018-06-27T06:37:02.372Z,18.50
2018-06-27T06:39:31.178Z,18.50
2018-06-27T06:44:38.526Z,18.60
2018-06-27T06:52:04.315Z,18.70
2018-06-27T06:54:33.380Z,18.60
2018-06-27T07:00:59.967Z,18.80
2018-06-27T07:03:28.841Z,19.00
2018-06-27T07:08:26.008Z,19.00
2018-06-27T07:10:54.910Z,19.10
2018-06-27T07:13:23.777Z,19.10
2018-06-27T07:18:21.140Z,19.20
2018-06-27T07:20:49.945Z,19.30
2018-06-27T07:23:18.796Z,19.30
2018-06-27T07:28:15.952Z,19.50
2018-06-27T07:33:13.182Z,19.90
2018-06-27T07:35:42.259Z,19.90
2018-06-27T07:40:39.399Z,20.20
2018-06-27T07:45:36.922Z,20.40
2018-06-27T07:48:06.195Z,20.50
2018-06-27T07:53:03.656Z,20.50
2018-06-27T07:55:32.443Z,20.30
2018-06-27T08:00:29.569Z,20.10
2018-06-27T08:02:58.542Z,20.20
2018-06-27T08:05:27.303Z,20.50
2018-06-27T08:10:24.403Z,20.70
2018-06-27T08:17:50.206Z,21.20
2018-06-27T08:22:47.434Z,21.10
2018-06-27T08:30:13.090Z,21.30
2018-06-27T08:40:07.314Z,21.80
2018-06-27T08:42:36.142Z,21.80
2018-06-27T08:47:33.378Z,21.90
2018-06-27T08:50:02.279Z,21.90
2018-06-27T08:59:56.481Z,22.50
2018-06-27T09:02:25.177Z,22.50
2018-06-27T09:04:54.036Z,22.30
2018-06-27T09:12:19.923Z,22.50
2018-06-27T09:14:48.652Z,22.60
2018-06-27T09:37:04.716Z,23.40
2018-06-27T09:39:33.564Z,23.40
2018-06-27T09:44:30.791Z,23.50
2018-06-27T09:51:56.500Z,23.70
2018-06-27T09:54:25.252Z,23.80
2018-06-27T09:59:22.529Z,24.20
2018-06-27T10:01:51.341Z,24.30
2018-06-27T10:04:20.060Z,24.40
2018-06-27T10:09:17.224Z,24.20
2018-06-27T10:14:14.546Z,24.20
2018-06-27T10:21:40.245Z,24.20
2018-06-27T10:24:09.094Z,24.20
2018-06-27T10:26:37.881Z,24.00
2018-06-27T10:29:06.725Z,24.10
2018-06-27T10:34:04.173Z,24.10
2018-06-27T10:36:33.043Z,24.10
2018-06-27T10:39:01.828Z,24.30
2018-06-27T10:41:30.629Z,24.40
2018-06-27T10:46:27.854Z,24.30
2018-06-27T10:53:53.727Z,23.90
2018-06-27T10:56:22.637Z,23.60
2018-06-27T10:58:51.402Z,23.40
2018-06-27T11:01:20.235Z,23.30
2018-06-27T11:08:46.851Z,23.10
2018-06-27T11:16:12.357Z,24.00
2018-06-27T11:18:41.088Z,24.60
2018-06-27T11:23:38.491Z,25.30
2018-06-27T11:26:07.572Z,25.20
2018-06-27T11:28:36.393Z,25.00
2018-06-27T11:31:05.144Z,24.60
2018-06-27T11:33:33.868Z,24.60
2018-06-27T11:36:02.829Z,25.00
2018-06-27T11:45:56.903Z,25.30
2018-06-27T11:48:25.724Z,25.20
2018-06-27T11:50:54.505Z,25.50
2018-06-27T11:55:52.080Z,25.80
2018-06-27T11:58:20.856Z,25.60
2018-06-27T12:00:49.711Z,25.70
2018-06-27T12:03:18.562Z,26.10
2018-06-27T12:05:47.435Z,26.50
2018-06-27T12:10:44.578Z,26.20
2018-06-27T12:13:13.402Z,26.60
2018-06-27T12:18:10.549Z,27.50
2018-06-27T12:20:39.281Z,27.80
2018-06-27T12:23:08.051Z,28.10
2018-06-27T17:59:06.587Z,27.90
2018-06-27T18:04:03.948Z,27.20
2018-06-27T18:06:32.700Z,27.00
2018-06-27T18:16:26.415Z,26.60
2018-06-27T19:18:16.604Z,24.80
2018-06-27T19:25:42.426Z,24.60
2018-06-27T19:28:11.169Z,24.50
2018-06-27T19:30:39.901Z,24.30
2018-06-27T19:33:08.652Z,24.30
2018-06-27T19:35:37.341Z,24.20
2018-06-27T19:43:02.716Z,24.00
2018-06-27T19:45:31.444Z,23.80
2018-06-27T19:50:28.673Z,23.80
2018-06-27T19:52:57.362Z,23.70
2018-06-27T19:55:26.062Z,23.70
2018-06-27T19:57:54.991Z,23.70
2018-06-27T20:00:23.776Z,23.60
2018-06-27T20:02:53.004Z,23.70
2018-06-27T20:05:22.057Z,23.60
2018-06-27T20:07:51.175Z,23.50
2018-06-27T20:10:19.927Z,23.40
2018-06-27T20:12:48.641Z,23.30
2018-06-27T20:17:45.712Z,23.30
2018-06-27T20:25:11.471Z,23.10
2018-06-27T20:32:37.078Z,22.90
2018-06-27T20:40:03.685Z,22.80
2018-06-27T20:42:33.876Z,22.80
2018-06-27T20:47:31.192Z,22.60
2018-06-27T20:49:59.955Z,22.60
2018-06-27T20:52:28.638Z,22.40
2018-06-27T20:57:56.630Z,22.50
2018-06-27T21:00:25.344Z,22.40
2018-06-27T21:02:54.988Z,22.40
2018-06-27T21:07:52.183Z,22.30
2018-06-27T21:10:21.410Z,22.20
2018-06-27T21:12:50.130Z,22.10
2018-06-27T21:15:18.858Z,22.20
2018-06-27T21:17:47.571Z,22.20
2018-06-27T21:20:16.391Z,22.20
2018-06-27T21:22:45.023Z,22.20
2018-06-27T21:25:13.724Z,22.10
2018-06-27T21:27:42.456Z,22.00
2018-06-27T21:30:11.197Z,21.80
2018-06-27T21:32:39.899Z,21.90
2018-06-27T21:35:08.778Z,21.80
2018-06-27T21:37:37.520Z,21.70
2018-06-27T21:40:06.308Z,21.70
2018-06-27T21:42:35.000Z,21.70
2018-06-27T21:47:32.176Z,21.70
2018-06-27T21:50:00.929Z,21.70
2018-06-27T21:52:29.615Z,21.60
2018-06-27T21:54:58.344Z,21.60
2018-06-27T21:57:27.062Z,21.50
2018-06-27T21:59:55.855Z,21.50
2018-06-27T22:02:24.518Z,21.30
2018-06-27T22:07:21.653Z,21.10
2018-06-27T22:09:50.377Z,21.10
2018-06-27T22:12:19.085Z,21.10
2018-06-27T22:14:47.953Z,20.90
2018-06-27T22:17:16.750Z,20.80
2018-06-27T22:19:45.460Z,20.70
2018-06-27T22:22:14.173Z,20.70
2018-06-27T22:27:11.343Z,20.40
2018-06-27T22:29:40.128Z,20.40
2018-06-27T22:32:08.891Z,20.30
2018-06-27T22:34:37.656Z,20.30
2018-06-27T22:37:06.391Z,20.20
2018-06-27T22:39:35.089Z,20.20
2018-06-27T22:42:03.931Z,20.20
2018-06-27T22:44:32.712Z,20.20
2018-06-27T22:47:01.469Z,20.20
2018-06-27T22:49:30.195Z,20.10
2018-06-27T22:54:27.310Z,19.90
2018-06-27T22:56:56.088Z,19.80
2018-06-27T22:59:24.753Z,19.80
2018-06-27T23:01:53.538Z,19.70
2018-06-27T23:04:22.260Z,19.70
2018-06-27T23:09:19.420Z,19.60
2018-06-27T23:11:48.179Z,19.60
2018-06-27T23:14:16.890Z,19.60
2018-06-27T23:16:45.684Z,19.50
2018-06-27T23:19:14.375Z,19.50
2018-06-27T23:21:43.073Z,19.60
2018-06-27T23:24:11.767Z,19.60
2018-06-27T23:26:40.488Z,19.50
2018-06-27T23:29:09.158Z,19.50
2018-06-27T23:31:37.956Z,19.40
2018-06-27T23:34:06.733Z,19.40
2018-06-27T23:36:35.472Z,19.40
2018-06-27T23:39:06.029Z,19.30
2018-06-27T23:41:34.773Z,19.30
2018-06-27T23:44:03.571Z,19.20
2018-06-27T23:46:32.414Z,19.20
2018-06-27T23:51:29.533Z,18.90
2018-06-27T23:53:58.273Z,18.90
2018-06-27T23:56:27.075Z,18.80
2018-06-27T23:58:55.893Z,18.80
